Time;durP1;ratioP1;P1;durP2;ratioP2;P2;SDS_P1;SDS_P2;PMS_P1;PMS_P2;Temp;Humidity;BMP_temperature;BMP_pressure;BME280_temperature;BME280_humidity;BME280_pressure;Samples;Min_cycle;Max_cycle;Signal;HPM_P1;HPM_P2
2022/12/08 00:01:43;;;;;;;3.30;0.90;;;24.90;44.90;;;;;;4123215;28;20042;-55
2022/12/08 00:04:07;;;;;;;4.18;0.90;;;25.00;45.00;;;;;;4124013;28;20116;-54
2022/12/08 00:09:28;;;;;;;2.95;1.10;;;25.00;45.00;;;;;;4120028;28;20068;-53
2022/12/08 00:12:03;;;;;;;3.35;0.93;;;25.00;45.00;;;;;;4125577;28;20035;-52
2022/12/08 00:14:34;;;;;;;2.67;0.80;;;25.00;45.00;;;;;;4122565;28;20038;-54
2022/12/08 00:16:58;;;;;;;4.75;1.10;;;25.00;44.90;;;;;;4122849;28;20220;-55
2022/12/08 00:19:22;;;;;;;3.90;1.15;;;25.10;45.00;;;;;;4121642;28;20311;-59
2022/12/08 00:21:44;;;;;;;2.83;1.02;;;25.10;45.00;;;;;;4120735;28;20034;-49
2022/12/08 00:24:07;;;;;;;2.83;0.80;;;25.10;45.10;;;;;;4123728;28;20157;-51
2022/12/08 00:26:30;;;;;;;3.08;1.40;;;25.10;45.00;;;;;;4123606;28;20065;-52
2022/12/08 00:28:52;;;;;;;2.45;0.80;;;25.20;45.20;;;;;;4121120;28;20035;-48
2022/12/08 00:31:16;;;;;;;2.65;0.95;;;25.10;45.00;;;;;;4124086;28;20371;-49
2022/12/08 00:33:39;;;;;;;3.00;1.10;;;25.20;45.20;;;;;;4117561;28;20050;-51
2022/12/08 00:36:13;;;;;;;4.82;1.10;;;25.20;45.30;;;;;;4122826;28;20322;-51
2022/12/08 00:38:36;;;;;;;2.10;0.80;;;25.20;45.20;;;;;;4118810;28;20514;-56
2022/12/08 00:40:59;;;;;;;2.45;0.90;;;25.20;45.20;;;;;;4122922;28;20534;-50
2022/12/08 00:43:21;;;;;;;3.83;1.13;;;25.20;45.30;;;;;;4135024;28;20045;-56
2022/12/08 00:45:44;;;;;;;3.35;0.93;;;25.30;45.40;;;;;;4126783;28;20038;-56
2022/12/08 00:48:06;;;;;;;3.83;1.00;;;25.30;45.40;;;;;;4121799;28;20038;-57
2022/12/08 00:50:29;;;;;;;3.35;1.08;;;25.30;45.40;;;;;;4123616;28;20036;-55
2022/12/08 00:52:52;;;;;;;2.03;0.90;;;25.30;45.30;;;;;;4118986;28;20601;-51
2022/12/08 00:55:14;;;;;;;2.55;0.70;;;25.40;45.30;;;;;;4118449;28;20455;-55
2022/12/08 00:57:37;;;;;;;4.05;0.98;;;25.40;45.40;;;;;;4117791;28;20047;-54
2022/12/08 00:59:59;;;;;;;3.33;1.27;;;25.40;45.20;;;;;;4116917;28;20069;-53
2022/12/08 01:02:23;;;;;;;6.55;0.90;;;25.40;45.10;;;;;;4122179;28;20045;-52
2022/12/08 01:04:45;;;;;;;3.45;0.95;;;25.40;45.20;;;;;;4121474;28;20048;-45
2022/12/08 01:07:08;;;;;;;3.80;1.23;;;25.40;45.20;;;;;;4124520;28;20041;-51
2022/12/08 01:09:31;;;;;;;3.35;1.02;;;25.40;45.30;;;;;;4124335;28;20045;-53
2022/12/08 01:11:54;;;;;;;2.50;0.95;;;25.40;45.10;;;;;;4126440;28;20072;-55
2022/12/08 01:14:16;;;;;;;3.70;1.03;;;25.40;45.20;;;;;;4125524;28;20414;-55
2022/12/08 01:16:40;;;;;;;3.33;1.00;;;25.50;45.30;;;;;;4123691;28;20658;-56
2022/12/08 01:19:03;;;;;;;2.78;1.33;;;25.50;45.30;;;;;;4125794;28;20429;-52
2022/12/08 01:21:27;;;;;;;6.38;1.35;;;25.50;45.30;;;;;;4126697;28;20553;-48
2022/12/08 01:23:49;;;;;;;2.75;1.10;;;25.50;45.20;;;;;;4123924;28;20034;-55
2022/12/08 01:26:14;;;;;;;3.85;1.23;;;25.50;45.20;;;;;;4125899;28;20034;-51
2022/12/08 01:28:37;;;;;;;3.30;1.00;;;25.60;45.30;;;;;;4126148;28;20042;-48
2022/12/08 01:31:00;;;;;;;4.07;1.20;;;25.60;45.40;;;;;;4122953;28;20030;-54
2022/12/08 01:33:23;;;;;;;5.88;1.17;;;25.60;45.30;;;;;;4127491;28;20128;-52
2022/12/08 01:35:45;;;;;;;3.80;1.38;;;25.60;45.20;;;;;;4123244;28;20092;-50
2022/12/08 01:38:08;;;;;;;4.60;1.38;;;25.60;45.20;;;;;;4123658;28;20054;-46
2022/12/08 01:40:30;;;;;;;5.85;1.65;;;25.60;44.40;;;;;;4124109;28;20034;-42
2022/12/08 01:42:53;;;;;;;5.30;1.67;;;25.60;44.30;;;;;;4123176;28;20088;-44
2022/12/08 01:45:24;;;;;;;7.35;1.65;;;25.50;44.30;;;;;;4123555;28;20042;-43
2022/12/08 01:47:52;;;;;;;6.95;1.95;;;25.60;44.40;;;;;;4124573;28;20474;-51
2022/12/08 01:50:18;;;;;;;2.80;1.33;;;25.50;44.40;;;;;;4125238;28;20469;-46
2022/12/08 01:52:47;;;;;;;3.97;1.35;;;25.60;44.30;;;;;;4114869;28;20137;-45
2022/12/08 01:55:42;;;;;;;6.47;1.25;;;25.50;44.20;;;;;;4127710;28;20042;-45
2022/12/08 01:58:27;;;;;;;3.17;1.10;;;25.50;44.40;;;;;;4122735;28;20034;-44
2022/12/08 02:00:51;;;;;;;3.95;1.10;;;25.50;44.40;;;;;;4121037;28;20038;-42
2022/12/08 02:03:19;;;;;;;3.05;1.38;;;25.50;44.40;;;;;;4119128;28;20034;-43
2022/12/08 02:05:42;;;;;;;5.15;1.20;;;25.50;44.40;;;;;;4117793;28;20294;-45
2022/12/08 02:08:08;;;;;;;3.13;0.88;;;25.50;44.10;;;;;;4123146;28;20130;-43
2022/12/08 02:10:36;;;;;;;1.73;0.73;;;25.60;44.30;;;;;;4120094;28;20548;-44
2022/12/08 02:13:00;;;;;;;3.08;1.15;;;25.50;44.10;;;;;;4118488;28;20144;-46
2022/12/08 02:15:52;;;;;;;3.78;1.45;;;25.50;44.10;;;;;;4122025;28;20498;-42
2022/12/08 02:18:36;;;;;;;3.53;0.98;;;25.50;44.10;;;;;;4122201;28;20397;-43
2022/12/08 02:21:17;;;;;;;2.67;0.90;;;25.50;44.10;;;;;;4123548;28;20419;-44
2022/12/08 02:23:57;;;;;;;4.00;0.98;;;25.50;44.10;;;;;;4121890;28;20069;-42
2022/12/08 02:26:29;;;;;;;3.13;1.00;;;25.50;44.10;;;;;;4121718;28;20425;-44
2022/12/08 02:29:12;;;;;;;4.75;1.10;;;25.50;44.10;;;;;;4120408;28;20038;-45
2022/12/08 02:31:50;;;;;;;2.15;0.98;;;25.50;44.10;;;;;;4121363;28;20407;-42
2022/12/08 02:35:00;;;;;;;2.10;0.70;;;25.40;44.10;;;;;;4120673;28;20042;-44
2022/12/08 02:37:59;;;;;;;2.75;1.23;;;25.40;43.90;;;;;;4120597;28;20593;-44
2022/12/08 02:40:34;;;;;;;1.58;0.82;;;25.40;43.90;;;;;;4117737;28;20054;-45
2022/12/08 02:43:00;;;;;;;2.03;0.93;;;25.40;43.90;;;;;;4119937;28;20900;-41
2022/12/08 02:45:58;;;;;;;2.97;1.10;;;25.40;43.70;;;;;;4123865;28;20038;-49
2022/12/08 02:48:21;;;;;;;5.00;1.00;;;25.40;43.80;;;;;;4118823;28;20042;-46
2022/12/08 02:50:43;;;;;;;1.70;0.70;;;25.40;43.80;;;;;;4118233;28;20039;-48
2022/12/08 02:53:06;;;;;;;2.08;0.95;;;25.40;44.40;;;;;;4123613;28;20490;-44
2022/12/08 02:55:37;;;;;;;2.45;1.00;;;25.40;43.90;;;;;;4122992;28;20042;-44
2022/12/08 02:58:18;;;;;;;3.03;0.77;;;25.40;43.80;;;;;;4124437;28;20043;-43
2022/12/08 03:00:56;;;;;;;2.00;0.63;;;25.40;43.80;;;;;;4119509;28;20038;-46
2022/12/08 03:03:44;;;;;;;2.60;1.20;;;25.40;43.70;;;;;;4124397;28;20042;-47
2022/12/08 03:06:26;;;;;;;2.03;0.70;;;25.40;43.70;;;;;;4121401;28;20387;-46
2022/12/08 03:08:57;;;;;;;1.77;0.70;;;25.40;43.80;;;;;;4126187;28;20490;-48
2022/12/08 03:12:03;;;;;;;1.65;0.63;;;25.30;43.70;;;;;;4123393;28;20490;-42
2022/12/08 03:14:27;;;;;;;2.22;0.82;;;25.40;43.70;;;;;;4121344;28;20046;-45
2022/12/08 03:16:55;;;;;;;2.90;0.73;;;25.30;43.60;;;;;;4124157;28;20074;-44
2022/12/08 03:19:20;;;;;;;2.25;1.00;;;25.30;43.70;;;;;;4124894;28;20049;-44
2022/12/08 03:21:46;;;;;;;2.42;0.90;;;25.30;43.60;;;;;;4121731;28;20046;-46
2022/12/08 03:24:10;;;;;;;2.03;0.85;;;25.30;43.40;;;;;;4124707;28;20049;-44
2022/12/08 03:26:55;;;;;;;2.22;0.88;;;25.30;43.50;;;;;;4122585;28;20101;-43
2022/12/08 03:29:18;;;;;;;2.67;0.70;;;25.30;43.70;;;;;;4123108;28;20104;-43
2022/12/08 03:31:51;;;;;;;2.80;0.98;;;25.30;43.70;;;;;;4124232;28;20064;-47
2022/12/08 03:34:14;;;;;;;2.20;0.80;;;25.30;43.60;;;;;;4121179;28;20049;-45
2022/12/08 03:36:37;;;;;;;1.73;0.77;;;25.30;43.60;;;;;;4122881;28;20049;-44
2022/12/08 03:39:00;;;;;;;2.25;0.68;;;25.30;43.50;;;;;;4127322;28;20136;-48
2022/12/08 03:41:23;;;;;;;1.75;0.40;;;25.30;43.30;;;;;;4124185;28;20042;-45
2022/12/08 03:43:53;;;;;;;2.13;0.52;;;25.30;43.40;;;;;;4126289;28;20050;-46
2022/12/08 03:46:21;;;;;;;2.45;0.90;;;25.30;43.50;;;;;;4115455;28;20061;-46
2022/12/08 03:48:43;;;;;;;4.13;0.98;;;25.20;43.40;;;;;;4116881;28;20061;-42
2022/12/08 03:51:06;;;;;;;2.15;0.70;;;25.30;43.50;;;;;;4116981;28;20425;-51
2022/12/08 03:53:28;;;;;;;1.58;0.73;;;25.30;43.50;;;;;;4120298;28;20050;-44
2022/12/08 03:55:53;;;;;;;0.68;0.40;;;25.30;43.40;;;;;;4119140;28;20038;-49
2022/12/08 03:58:15;;;;;;;2.17;0.88;;;25.30;43.40;;;;;;4115843;28;20378;-47
2022/12/08 04:00:38;;;;;;;2.53;1.08;;;25.30;43.50;;;;;;4119189;28;20037;-46
2022/12/08 04:03:00;;;;;;;1.65;0.52;;;25.30;43.50;;;;;;4120682;28;20138;-42
2022/12/08 04:05:23;;;;;;;2.67;0.93;;;25.30;43.60;;;;;;4118160;28;20034;-42
2022/12/08 04:07:45;;;;;;;2.45;0.75;;;25.30;42.80;;;;;;4119166;28;20156;-42
2022/12/08 04:10:08;;;;;;;2.85;1.10;;;25.30;43.20;;;;;;4120703;28;20121;-43
2022/12/08 04:12:31;;;;;;;2.73;0.70;;;25.40;43.00;;;;;;4115381;28;20057;-43
2022/12/08 04:14:54;;;;;;;2.60;0.85;;;25.40;43.30;;;;;;4119622;28;20294;-43
2022/12/08 04:17:16;;;;;;;6.78;1.48;;;25.40;43.80;;;;;;4119489;28;20560;-46
2022/12/08 04:19:39;;;;;;;3.55;1.15;;;25.50;44.00;;;;;;4118101;28;20462;-49
2022/12/08 04:22:02;;;;;;;4.63;1.00;;;25.50;44.20;;;;;;4120942;28;20486;-43
2022/12/08 04:24:24;;;;;;;2.75;0.85;;;25.60;44.60;;;;;;4116761;28;20042;-43
2022/12/08 04:26:48;;;;;;;4.97;1.20;;;25.60;43.70;;;;;;4116498;28;20124;-46
2022/12/08 04:29:11;;;;;;;3.38;0.90;;;25.70;43.60;;;;;;4113467;28;20038;-46
2022/12/08 04:31:33;;;;;;;3.30;0.80;;;25.70;43.30;;;;;;4119031;28;20074;-42
2022/12/08 04:33:56;;;;;;;4.25;1.10;;;25.80;43.20;;;;;;4115648;28;20069;-47
2022/12/08 04:36:18;;;;;;;7.88;1.42;;;25.80;42.00;;;;;;4115436;28;20145;-43
2022/12/08 04:38:41;;;;;;;4.95;1.17;;;25.80;42.70;;;;;;4116861;28;20498;-41
2022/12/08 04:41:03;;;;;;;8.77;1.50;;;25.90;42.70;;;;;;4122414;28;20465;-44
2022/12/08 04:43:26;;;;;;;3.92;1.33;;;25.90;42.30;;;;;;4121311;28;20038;-50
2022/12/08 04:45:49;;;;;;;5.47;0.80;;;26.00;42.20;;;;;;4115872;28;20038;-46
2022/12/08 04:48:12;;;;;;;5.10;1.10;;;26.00;41.90;;;;;;4122920;28;20038;-44
2022/12/08 04:50:34;;;;;;;4.40;1.00;;;26.10;42.10;;;;;;4118584;28;20419;-48
2022/12/08 04:52:57;;;;;;;2.08;0.80;;;26.10;41.50;;;;;;4118575;28;20052;-45
2022/12/08 04:55:19;;;;;;;3.45;1.00;;;26.20;41.80;;;;;;4119329;28;20139;-48
2022/12/08 04:57:42;;;;;;;2.28;1.13;;;26.30;41.20;;;;;;4120358;28;20049;-48
2022/12/08 05:00:06;;;;;;;10.50;1.33;;;26.40;42.10;;;;;;4118857;28;20091;-42
2022/12/08 05:02:28;;;;;;;4.03;0.93;;;26.40;42.20;;;;;;4119436;28;20304;-45
2022/12/08 05:04:51;;;;;;;5.82;1.27;;;26.50;42.60;;;;;;4117632;28;20109;-46
2022/12/08 05:07:14;;;;;;;6.07;1.05;;;26.50;42.40;;;;;;4117492;28;20046;-46
2022/12/08 05:09:36;;;;;;;7.30;1.00;;;26.60;42.30;;;;;;4115562;28;20026;-44
2022/12/08 05:11:59;;;;;;;9.52;1.75;;;26.70;41.60;;;;;;4116149;28;20488;-43
2022/12/08 05:14:21;;;;;;;5.28;1.00;;;26.70;41.80;;;;;;4116203;28;20043;-50
2022/12/08 05:16:45;;;;;;;6.20;1.35;;;26.80;41.70;;;;;;4118255;28;20099;-43
2022/12/08 05:19:07;;;;;;;3.90;0.82;;;26.80;41.70;;;;;;4118593;28;20065;-44
2022/12/08 05:21:30;;;;;;;8.45;0.90;;;26.90;42.00;;;;;;4117895;28;20045;-48
2022/12/08 05:23:53;;;;;;;10.68;1.30;;;26.90;42.10;;;;;;4120061;28;20113;-46
2022/12/08 05:26:15;;;;;;;2.55;0.77;;;27.00;42.00;;;;;;4118437;28;20118;-48
2022/12/08 05:28:38;;;;;;;3.60;0.90;;;27.00;41.90;;;;;;4113466;28;20442;-44
2022/12/08 05:31:00;;;;;;;3.38;0.90;;;27.00;41.60;;;;;;4118549;28;20073;-42
2022/12/08 05:33:23;;;;;;;3.95;0.80;;;27.00;41.30;;;;;;4118767;28;20042;-42
2022/12/08 05:35:45;;;;;;;2.17;0.75;;;27.00;41.40;;;;;;4117148;28;20088;-45
2022/12/08 05:38:09;;;;;;;1.70;0.70;;;27.10;41.50;;;;;;4121114;28;20423;-43
2022/12/08 05:40:31;;;;;;;4.65;0.68;;;27.10;41.80;;;;;;4119269;28;20046;-44
2022/12/08 05:42:54;;;;;;;1.52;0.55;;;27.00;41.80;;;;;;4120586;28;20034;-44
2022/12/08 05:45:16;;;;;;;2.65;0.55;;;26.90;42.00;;;;;;4117484;28;20038;-47
2022/12/08 05:47:39;;;;;;;2.90;0.60;;;26.90;42.10;;;;;;4124448;28;20390;-44
2022/12/08 05:50:01;;;;;;;2.78;0.93;;;26.80;42.30;;;;;;4124895;28;20879;-43
2022/12/08 05:52:24;;;;;;;2.30;0.68;;;26.80;42.20;;;;;;4124500;28;20030;-43
2022/12/08 05:54:46;;;;;;;1.73;0.50;;;26.80;42.20;;;;;;4122103;28;20047;-45
2022/12/08 05:57:09;;;;;;;2.03;0.70;;;26.70;42.10;;;;;;4123279;28;20086;-46
2022/12/08 05:59:32;;;;;;;1.13;0.55;;;26.70;42.20;;;;;;4123737;28;20692;-46
2022/12/08 06:01:54;;;;;;;3.08;0.70;;;26.80;42.20;;;;;;4123238;28;20034;-46
2022/12/08 06:04:17;;;;;;;2.38;0.80;;;26.80;42.20;;;;;;4125231;28;20038;-44
2022/12/08 06:06:39;;;;;;;3.15;0.75;;;26.80;42.10;;;;;;4125897;28;20078;-44
2022/12/08 06:09:05;;;;;;;0.82;0.57;;;26.80;42.00;;;;;;4124670;28;20049;-44
2022/12/08 06:11:30;;;;;;;3.10;0.90;;;26.80;42.00;;;;;;4120676;28;20164;-43
2022/12/08 06:13:54;;;;;;;2.65;0.88;;;26.80;41.90;;;;;;4121326;28;20459;-44
2022/12/08 06:16:18;;;;;;;1.67;0.68;;;26.80;41.90;;;;;;4115374;28;20402;-45
2022/12/08 06:18:40;;;;;;;2.00;0.68;;;26.90;42.00;;;;;;4119555;28;20467;-47
2022/12/08 06:21:08;;;;;;;1.85;0.70;;;26.90;41.90;;;;;;4118498;28;20038;-44
2022/12/08 06:23:31;;;;;;;4.07;0.80;;;26.90;41.70;;;;;;4119205;28;20050;-42
2022/12/08 06:25:53;;;;;;;2.90;1.05;;;26.90;41.00;;;;;;4114078;28;20627;-43
2022/12/08 06:28:16;;;;;;;5.78;0.82;;;26.90;41.00;;;;;;4117981;28;20038;-46
2022/12/08 06:30:38;;;;;;;6.43;1.00;;;26.90;40.50;;;;;;4115726;28;20038;-43
2022/12/08 06:33:01;;;;;;;1.45;0.80;;;26.90;40.50;;;;;;4118177;28;20053;-43
2022/12/08 06:35:23;;;;;;;1.27;0.57;;;26.90;40.70;;;;;;4119058;28;20049;-44
2022/12/08 06:37:46;;;;;;;4.85;1.38;;;26.90;41.00;;;;;;4117173;28;20491;-45
2022/12/08 06:40:09;;;;;;;2.28;1.20;;;26.90;40.90;;;;;;4118457;28;20425;-47
2022/12/08 06:42:45;;;;;;;2.85;0.82;;;26.80;40.60;;;;;;4122192;28;20030;-45
2022/12/08 06:45:08;;;;;;;3.38;0.82;;;26.80;40.70;;;;;;4116895;28;20517;-48
2022/12/08 06:47:31;;;;;;;4.82;1.05;;;26.80;40.70;;;;;;4120241;28;20096;-47
2022/12/08 06:49:53;;;;;;;3.17;0.75;;;26.80;40.40;;;;;;4121822;28;20097;-45
2022/12/08 06:52:16;;;;;;;7.28;1.00;;;26.70;40.00;;;;;;4116757;28;20045;-41
2022/12/08 06:54:39;;;;;;;3.50;1.05;;;26.70;40.70;;;;;;4120547;28;20054;-47
2022/12/08 06:57:01;;;;;;;2.63;1.23;;;26.70;40.30;;;;;;4119489;28;20141;-44
2022/12/08 06:59:25;;;;;;;6.32;2.85;;;26.70;38.70;;;;;;4119775;28;20043;-44
2022/12/08 07:01:47;;;;;;;8.35;2.95;;;26.70;38.40;;;;;;4118300;28;20088;-42
2022/12/08 07:04:10;;;;;;;18.20;7.78;;;26.70;37.80;;;;;;4121457;28;20049;-47
2022/12/08 07:06:32;;;;;;;21.48;9.27;;;26.60;38.90;;;;;;4127371;28;20045;-46
2022/12/08 07:08:55;;;;;;;23.50;10.35;;;26.60;38.90;;;;;;4122147;28;20042;-45
2022/12/08 07:11:17;;;;;;;20.33;8.27;;;26.60;39.00;;;;;;4121733;28;20043;-50
2022/12/08 07:13:40;;;;;;;20.85;9.45;;;26.60;38.60;;;;;;4122748;28;20046;-47
2022/12/08 07:16:06;;;;;;;15.27;6.85;;;26.60;38.80;;;;;;4119964;28;20049;-46
2022/12/08 07:18:28;;;;;;;14.88;5.85;;;26.60;39.00;;;;;;4121295;28;20046;-47
2022/12/08 07:20:51;;;;;;;10.38;4.60;;;26.60;38.80;;;;;;4123178;28;20479;-46
2022/12/08 07:23:13;;;;;;;12.13;4.32;;;26.50;38.30;;;;;;4119512;28;20494;-46
2022/12/08 07:25:36;;;;;;;10.43;3.88;;;26.40;38.00;;;;;;4121189;28;20402;-51
2022/12/08 07:27:59;;;;;;;7.90;3.25;;;26.40;38.60;;;;;;4123735;28;20052;-49
2022/12/08 07:30:21;;;;;;;8.80;3.45;;;26.40;38.70;;;;;;4120222;28;20128;-46
2022/12/08 07:32:44;;;;;;;7.47;2.50;;;26.30;38.90;;;;;;4124446;28;20057;-48
2022/12/08 07:35:08;;;;;;;6.88;2.47;;;26.30;39.20;;;;;;4123625;28;20044;-51
2022/12/08 07:37:31;;;;;;;4.65;2.03;;;26.20;38.10;;;;;;4120358;28;20034;-51
2022/12/08 07:39:53;;;;;;;;;;;26.20;39.00;;;;;;4122527;28;20410;-45
2022/12/08 07:42:16;;;;;;;3.22;1.88;;;26.20;39.30;;;;;;4119667;28;20353;-49
2022/12/08 07:44:38;;;;;;;5.13;1.70;;;26.10;39.20;;;;;;4116355;28;20054;-48
2022/12/08 07:47:01;;;;;;;6.43;1.98;;;26.10;38.70;;;;;;4118651;28;20044;-51
2022/12/08 07:49:23;;;;;;;5.68;1.70;;;26.10;38.60;;;;;;4117599;28;20038;-44
2022/12/08 07:51:46;;;;;;;5.85;1.73;;;26.10;39.00;;;;;;4117142;28;20117;-48
2022/12/08 07:54:12;;;;;;;3.22;1.25;;;26.00;39.00;;;;;;4118202;28;20125;-48
2022/12/08 07:56:34;;;;;;;3.45;1.35;;;26.00;38.70;;;;;;4117518;28;20038;-43
2022/12/08 07:58:57;;;;;;;2.90;1.02;;;26.00;38.60;;;;;;4118005;28;20100;-44
2022/12/08 08:01:30;;;;;;;3.72;1.75;;;25.90;38.50;;;;;;4117076;28;20680;-49
2022/12/08 08:03:53;;;;;;;2.17;1.00;;;25.90;38.50;;;;;;4116344;28;20038;-45
2022/12/08 08:06:15;;;;;;;;;;;25.90;38.20;;;;;;4116329;28;20121;-48
2022/12/08 08:08:38;;;;;;;3.38;1.15;;;25.80;38.70;;;;;;4120188;28;19910;-46
2022/12/08 08:11:00;;;;;;;3.53;1.13;;;25.80;38.50;;;;;;4116948;28;20034;-45
2022/12/08 08:13:23;;;;;;;4.22;1.20;;;25.80;38.50;;;;;;4117598;28;20494;-45
2022/12/08 08:15:45;;;;;;;3.80;1.35;;;25.80;38.40;;;;;;4124813;28;20339;-47
2022/12/08 08:18:08;;;;;;;3.50;0.98;;;25.70;38.20;;;;;;4121864;28;20528;-47
2022/12/08 08:20:30;;;;;;;5.57;1.13;;;25.70;38.90;;;;;;4124496;28;20086;-51
2022/12/08 08:22:53;;;;;;;2.15;0.90;;;25.70;38.20;;;;;;4121762;28;20041;-50
2022/12/08 08:25:17;;;;;;;3.50;1.13;;;25.70;38.70;;;;;;4121231;28;20030;-50
2022/12/08 08:27:39;;;;;;;3.95;1.10;;;25.60;38.50;;;;;;4123531;28;20061;-49
2022/12/08 08:30:02;;;;;;;3.10;0.90;;;25.50;38.50;;;;;;4123214;28;20512;-49
2022/12/08 08:32:24;;;;;;;3.20;0.70;;;25.50;38.40;;;;;;4123501;28;20042;-47
2022/12/08 08:34:47;;;;;;;2.22;1.05;;;25.50;39.00;;;;;;4122536;28;20552;-46
2022/12/08 08:37:10;;;;;;;4.30;1.00;;;25.50;38.90;;;;;;4123386;28;20128;-51
2022/12/08 08:39:32;;;;;;;4.78;1.13;;;25.50;38.80;;;;;;4122180;28;20046;-48
2022/12/08 08:41:55;;;;;;;4.13;1.13;;;25.50;39.00;;;;;;4125347;28;20406;-44
2022/12/08 08:44:17;;;;;;;3.30;1.20;;;25.40;38.70;;;;;;4112209;28;20334;-47
2022/12/08 08:46:40;;;;;;;2.78;1.30;;;25.40;38.60;;;;;;4123354;28;20042;-46
2022/12/08 08:49:03;;;;;;;6.80;1.47;;;25.40;38.90;;;;;;4122672;28;20034;-46
2022/12/08 08:51:25;;;;;;;2.65;1.08;;;25.40;38.90;;;;;;4119282;28;20030;-46
2022/12/08 08:53:48;;;;;;;3.45;0.75;;;25.30;39.00;;;;;;4123709;28;20084;-50
2022/12/08 08:56:18;;;;;;;3.90;1.00;;;25.30;39.10;;;;;;4122389;28;20034;-49
2022/12/08 08:58:41;;;;;;;3.15;1.20;;;25.30;39.10;;;;;;4126402;28;20049;-47
2022/12/08 09:01:04;;;;;;;2.55;0.90;;;25.30;39.10;;;;;;4122495;28;20217;-46
2022/12/08 09:03:26;;;;;;;2.70;1.15;;;25.30;39.00;;;;;;4124065;28;20346;-46
2022/12/08 09:05:50;;;;;;;3.40;1.08;;;25.20;38.80;;;;;;4122436;28;20046;-48
2022/12/08 09:08:12;;;;;;;4.60;1.52;;;25.20;39.10;;;;;;4121380;28;20062;-46
2022/12/08 09:10:36;;;;;;;3.67;1.23;;;25.20;39.30;;;;;;4122939;28;20753;-44
2022/12/08 09:12:58;;;;;;;4.25;1.10;;;25.20;39.50;;;;;;4126481;28;20333;-45
2022/12/08 09:15:21;;;;;;;4.00;0.90;;;25.10;39.10;;;;;;4123846;28;20272;-46
2022/12/08 09:17:43;;;;;;;4.15;1.55;;;25.10;39.60;;;;;;4124382;28;20545;-46
2022/12/08 09:20:07;;;;;;;2.20;1.10;;;25.10;39.40;;;;;;4122084;28;20045;-47
2022/12/08 09:22:29;;;;;;;2.97;1.00;;;25.10;39.40;;;;;;4124932;28;20042;-48
2022/12/08 09:24:52;;;;;;;5.72;1.27;;;25.10;39.60;;;;;;4124460;28;20034;-46
2022/12/08 09:27:15;;;;;;;2.47;1.23;;;25.10;39.40;;;;;;4125627;28;20413;-45
2022/12/08 09:29:37;;;;;;;4.05;1.20;;;25.00;40.00;;;;;;4122964;28;20038;-43
2022/12/08 09:32:00;;;;;;;3.72;1.30;;;25.00;39.80;;;;;;4123630;28;20054;-47
2022/12/08 09:34:22;;;;;;;4.10;1.13;;;25.00;39.50;;;;;;4123307;28;20046;-44
2022/12/08 09:36:45;;;;;;;3.00;1.05;;;25.00;39.90;;;;;;4124229;28;20133;-44
2022/12/08 09:39:08;;;;;;;1.77;0.95;;;25.00;39.80;;;;;;4128414;28;20047;-43
2022/12/08 09:41:36;;;;;;;5.65;1.20;;;24.90;40.00;;;;;;4123987;28;20125;-44
2022/12/08 09:44:21;;;;;;;2.25;1.08;;;24.90;40.00;;;;;;4121213;28;20048;-44
2022/12/08 09:46:46;;;;;;;4.35;1.33;;;24.90;40.40;;;;;;4120131;28;20042;-47
2022/12/08 09:49:17;;;;;;;5.18;1.25;;;24.90;40.10;;;;;;4120574;28;20095;-47
2022/12/08 09:51:43;;;;;;;4.50;1.40;;;24.90;40.10;;;;;;4119957;28;20054;-47
2022/12/08 09:54:18;;;;;;;3.67;1.10;;;24.80;39.90;;;;;;4118583;28;20457;-47
2022/12/08 09:56:40;;;;;;;2.28;1.00;;;24.80;40.10;;;;;;4120582;28;20513;-46
2022/12/08 09:59:09;;;;;;;3.83;1.35;;;24.80;40.30;;;;;;4119603;28;20533;-45
2022/12/08 10:01:37;;;;;;;3.78;0.95;;;24.80;40.60;;;;;;4121439;28;20047;-46
2022/12/08 10:03:59;;;;;;;3.42;1.20;;;24.80;40.70;;;;;;4119729;28;20034;-48
2022/12/08 10:06:41;;;;;;;3.70;1.10;;;24.80;40.50;;;;;;4120069;28;20068;-47
2022/12/08 10:09:40;;;;;;;2.40;1.00;;;24.80;40.90;;;;;;4120400;28;20039;-46
2022/12/08 10:12:22;;;;;;;2.65;1.10;;;24.80;40.70;;;;;;4119347;28;20504;-46
2022/12/08 10:15:12;;;;;;;3.05;1.30;;;24.80;41.00;;;;;;4119855;28;20482;-46
2022/12/08 10:17:52;;;;;;;3.20;0.95;;;24.70;40.90;;;;;;4121683;28;20041;-50
2022/12/08 10:20:25;;;;;;;4.28;1.45;;;24.70;40.90;;;;;;4119845;28;20037;-48
2022/12/08 10:22:55;;;;;;;3.72;1.23;;;24.70;40.90;;;;;;4117378;28;20049;-49
2022/12/08 10:25:29;;;;;;;2.88;1.15;;;24.70;41.00;;;;;;4118830;28;20741;-47
2022/12/08 10:27:52;;;;;;;;;;;24.60;41.30;;;;;;4119944;28;20034;-51
2022/12/08 10:30:18;;;;;;;2.05;0.90;;;24.60;41.20;;;;;;4119526;28;19913;-49
2022/12/08 10:32:44;;;;;;;2.60;1.00;;;24.60;41.40;;;;;;4119546;28;20042;-50
2022/12/08 10:35:11;;;;;;;2.70;1.02;;;24.60;41.70;;;;;;4121142;28;20034;-46
2022/12/08 10:37:33;;;;;;;2.60;1.00;;;24.60;41.20;;;;;;4116150;28;20122;-49
2022/12/08 10:40:13;;;;;;;2.88;1.00;;;24.60;41.20;;;;;;4118027;28;20593;-49
2022/12/08 10:42:50;;;;;;;1.65;0.95;;;24.60;41.20;;;;;;4120051;28;20081;-48
2022/12/08 10:45:44;;;;;;;2.50;1.23;;;24.50;41.40;;;;;;4120759;28;20659;-48
2022/12/08 10:48:14;;;;;;;2.75;0.93;;;24.50;41.30;;;;;;4122470;28;20442;-49
2022/12/08 10:50:43;;;;;;;2.13;1.00;;;24.50;41.40;;;;;;4121458;28;20486;-48
2022/12/08 10:53:12;;;;;;;3.25;1.00;;;24.50;41.40;;;;;;4118609;28;20085;-45
2022/12/08 10:56:03;;;;;;;1.48;0.80;;;24.50;41.50;;;;;;4119288;28;20450;-49
2022/12/08 10:58:29;;;;;;;3.00;1.42;;;24.50;41.70;;;;;;4118437;28;20050;-48
2022/12/08 11:01:16;;;;;;;3.22;1.08;;;24.40;41.70;;;;;;4118319;28;20042;-50
2022/12/08 11:03:51;;;;;;;2.38;1.05;;;24.40;41.70;;;;;;4119954;28;20042;-45
2022/12/08 11:06:40;;;;;;;3.40;1.02;;;24.40;41.90;;;;;;4120835;28;20553;-46
2022/12/08 11:09:42;;;;;;;4.47;1.25;;;24.40;41.70;;;;;;4124738;28;20262;-47
2022/12/08 11:12:13;;;;;;;1.88;0.98;;;24.40;42.20;;;;;;4116356;28;20049;-48
2022/12/08 11:14:45;;;;;;;2.67;0.90;;;24.40;41.80;;;;;;4125935;28;20519;-47
2022/12/08 11:17:16;;;;;;;1.58;0.90;;;24.30;41.80;;;;;;4123029;28;20100;-46
2022/12/08 11:19:42;;;;;;;2.70;1.23;;;24.40;42.10;;;;;;4122406;28;20093;-50
2022/12/08 11:22:31;;;;;;;2.63;0.88;;;24.30;42.00;;;;;;4124536;28;20467;-47
2022/12/08 11:25:06;;;;;;;2.75;0.98;;;24.30;42.10;;;;;;4123668;28;20041;-49
2022/12/08 11:27:31;;;;;;;4.50;1.25;;;24.30;42.10;;;;;;4122702;28;20089;-47
2022/12/08 11:29:54;;;;;;;2.22;0.98;;;24.30;42.90;;;;;;4120617;28;20120;-45
2022/12/08 11:32:17;;;;;;;3.38;1.10;;;24.30;42.50;;;;;;4126024;28;20405;-48
2022/12/08 11:34:42;;;;;;;4.10;1.30;;;24.30;42.20;;;;;;4124433;28;20430;-49
2022/12/08 11:37:10;;;;;;;3.90;1.13;;;24.30;42.60;;;;;;4126090;28;20037;-51
2022/12/08 11:39:36;;;;;;;2.75;1.00;;;24.20;42.30;;;;;;4122458;28;20057;-49
2022/12/08 11:42:06;;;;;;;3.70;0.82;;;24.20;42.30;;;;;;4121691;28;20073;-46
2022/12/08 11:44:50;;;;;;;2.35;1.00;;;24.20;42.50;;;;;;4121798;28;20081;-52
2022/12/08 11:47:17;;;;;;;4.55;1.33;;;24.20;42.40;;;;;;4124223;28;20118;-48
2022/12/08 11:49:42;;;;;;;10.20;1.73;;;24.20;42.80;;;;;;4121472;28;20428;-46
2022/12/08 11:52:33;;;;;;;9.25;1.38;;;24.20;43.20;;;;;;4122927;28;20049;-52
2022/12/08 11:55:23;;;;;;;8.30;1.45;;;24.20;43.30;;;;;;4119527;28;20509;-45
2022/12/08 11:57:46;;;;;;;4.65;1.20;;;24.20;43.30;;;;;;4118976;28;20100;-52
2022/12/08 12:00:15;;;;;;;5.32;1.10;;;24.20;43.40;;;;;;4120636;28;20430;-46
2022/12/08 12:02:48;;;;;;;4.47;1.15;;;24.20;43.40;;;;;;4118174;28;20078;-48
2022/12/08 12:05:39;;;;;;;5.45;1.00;;;24.20;43.50;;;;;;4120266;28;20065;-47
2022/12/08 12:08:38;;;;;;;3.50;1.10;;;24.20;43.50;;;;;;4119539;28;20038;-46
2022/12/08 12:11:05;;;;;;;3.20;1.05;;;24.20;43.60;;;;;;4122648;28;20665;-47
2022/12/08 12:13:46;;;;;;;3.63;0.80;;;24.30;43.70;;;;;;4119146;28;20249;-48
2022/12/08 12:16:14;;;;;;;3.05;0.93;;;24.20;43.60;;;;;;4118874;28;20033;-46
2022/12/08 12:18:58;;;;;;;2.35;0.70;;;24.30;43.70;;;;;;4120391;28;20048;-44
2022/12/08 12:21:23;;;;;;;2.60;0.73;;;24.30;43.70;;;;;;4120974;28;20482;-51
2022/12/08 12:24:05;;;;;;;3.58;0.63;;;24.20;43.80;;;;;;4119451;28;20050;-45
2022/12/08 12:26:31;;;;;;;4.50;1.33;;;24.30;43.70;;;;;;4117249;28;20027;-50
2022/12/08 12:29:17;;;;;;;3.28;0.85;;;24.20;43.80;;;;;;4119344;28;20538;-50
2022/12/08 12:31:49;;;;;;;3.30;0.82;;;24.20;43.70;;;;;;4123158;28;20077;-46
2022/12/08 12:34:23;;;;;;;3.13;0.93;;;24.20;43.80;;;;;;4121895;28;20043;-47
2022/12/08 12:37:11;;;;;;;4.82;1.17;;;24.20;43.90;;;;;;4120320;28;20146;-48
2022/12/08 12:39:55;;;;;;;3.05;0.90;;;24.20;43.80;;;;;;4121182;28;20104;-51
2022/12/08 12:42:44;;;;;;;5.22;0.90;;;24.20;43.90;;;;;;4121049;28;20038;-43
2022/12/08 12:45:25;;;;;;;3.28;1.02;;;24.20;43.90;;;;;;4120169;28;20457;-42
2022/12/08 12:47:51;;;;;;;10.15;1.50;;;24.20;43.90;;;;;;4123843;28;20054;-46
2022/12/08 12:50:35;;;;;;;11.48;1.73;;;24.20;44.20;;;;;;4117623;28;20030;-43
2022/12/08 12:53:02;;;;;;;7.57;1.33;;;24.20;44.20;;;;;;4127263;28;20050;-43